Time;durP1;ratioP1;P1;durP2;ratioP2;P2;SDS_P1;SDS_P2;PMS_P1;PMS_P2;Temp;Humidity;BMP_temperature;BMP_pressure;BME280_temperature;BME280_humidity;BME280_pressure;Samples;Min_cycle;Max_cycle;Signal;HPM_P1;HPM_P2
2023/10/30 00:01:32;;;;;;;5.68;2.47;;;10.30;99.90;;;;;;5032953;28;20045;-71
2023/10/30 00:03:57;;;;;;;6.53;2.28;;;10.30;99.90;;;;;;5025234;28;20555;-71
2023/10/30 00:06:23;;;;;;;5.25;1.92;;;10.30;99.90;;;;;;5025364;28;20029;-69
2023/10/30 00:08:49;;;;;;;4.38;2.20;;;10.30;99.90;;;;;;5032239;28;20511;-69
2023/10/30 00:11:14;;;;;;;5.82;2.28;;;10.30;99.90;;;;;;5028438;28;20091;-69
2023/10/30 00:13:41;;;;;;;7.22;2.05;;;10.30;99.90;;;;;;5030657;28;20370;-70
2023/10/30 00:16:09;;;;;;;4.80;2.10;;;10.30;99.90;;;;;;5024941;28;20045;-71
2023/10/30 00:18:35;;;;;;;5.22;2.00;;;10.20;99.90;;;;;;5034581;28;20652;-71
2023/10/30 00:21:01;;;;;;;3.90;1.95;;;10.20;99.90;;;;;;5007135;28;20521;-71
2023/10/30 00:23:28;;;;;;;5.35;1.92;;;10.10;99.90;;;;;;5022153;28;20045;-69
2023/10/30 00:25:54;;;;;;;9.60;2.10;;;10.10;99.90;;;;;;5031800;28;20581;-70
2023/10/30 00:28:20;;;;;;;5.70;2.08;;;10.10;99.90;;;;;;5009280;28;20045;-69
2023/10/30 00:30:46;;;;;;;9.90;2.05;;;10.00;99.90;;;;;;5022384;28;20040;-69
2023/10/30 00:33:11;;;;;;;6.68;2.63;;;10.00;99.90;;;;;;5031353;28;20052;-71
2023/10/30 00:35:37;;;;;;;6.10;2.28;;;10.10;99.90;;;;;;5026778;28;20127;-71
2023/10/30 00:38:03;;;;;;;6.20;2.20;;;10.10;99.90;;;;;;5019392;28;20068;-69
2023/10/30 00:40:29;;;;;;;7.32;2.20;;;10.00;99.90;;;;;;5031493;28;20041;-69
2023/10/30 00:42:54;;;;;;;4.05;2.25;;;10.00;99.90;;;;;;5031094;28;20045;-70
2023/10/30 00:45:20;;;;;;;8.85;2.20;;;10.00;99.90;;;;;;5027639;28;20139;-71
2023/10/30 00:47:45;;;;;;;3.72;2.10;;;10.00;99.90;;;;;;5031260;28;20110;-71
2023/10/30 00:50:11;;;;;;;6.68;2.33;;;10.00;99.90;;;;;;5032390;28;20046;-71
2023/10/30 00:52:36;;;;;;;6.55;2.50;;;10.00;99.90;;;;;;5010375;28;20044;-71
2023/10/30 00:55:02;;;;;;;5.93;2.55;;;10.00;99.90;;;;;;5012961;28;20476;-71
2023/10/30 00:57:28;;;;;;;5.43;2.05;;;10.10;99.90;;;;;;5023374;28;20034;-71
2023/10/30 00:59:54;;;;;;;7.50;2.50;;;10.10;99.90;;;;;;5014048;28;20402;-69
2023/10/30 01:02:19;;;;;;;10.63;2.97;;;10.10;99.90;;;;;;5040676;28;20509;-69
2023/10/30 01:04:45;;;;;;;4.43;2.25;;;10.00;99.90;;;;;;5036945;28;20116;-69
2023/10/30 01:07:11;;;;;;;5.93;2.30;;;10.00;99.90;;;;;;5036303;28;20443;-71
2023/10/30 01:09:36;;;;;;;9.30;2.40;;;10.10;99.90;;;;;;5043132;28;20131;-71
2023/10/30 01:12:02;;;;;;;4.32;2.00;;;10.10;99.90;;;;;;5021177;28;20458;-71
2023/10/30 01:14:27;;;;;;;5.90;2.13;;;10.10;99.90;;;;;;5019273;28;20510;-71
2023/10/30 01:16:53;;;;;;;9.45;2.40;;;10.10;99.90;;;;;;5028616;28;20037;-71
2023/10/30 01:19:18;;;;;;;10.85;2.30;;;10.10;99.90;;;;;;5030293;28;20038;-70
2023/10/30 01:21:45;;;;;;;6.93;2.20;;;10.10;99.90;;;;;;5030961;28;20087;-69
2023/10/30 01:24:11;;;;;;;6.82;2.25;;;10.10;99.90;;;;;;5013134;28;20516;-69
2023/10/30 01:26:38;;;;;;;8.32;2.45;;;10.10;99.90;;;;;;5004121;28;20041;-69
2023/10/30 01:29:04;;;;;;;6.38;2.78;;;10.10;99.90;;;;;;5013282;28;20042;-71
2023/10/30 01:31:30;;;;;;;5.88;2.47;;;10.10;99.90;;;;;;5031201;28;20041;-71
2023/10/30 01:33:56;;;;;;;5.20;2.30;;;10.20;99.90;;;;;;5016174;28;20041;-70
2023/10/30 01:36:22;;;;;;;7.00;2.40;;;10.10;99.90;;;;;;5045499;28;20080;-71
2023/10/30 01:38:47;;;;;;;6.30;2.38;;;10.10;99.90;;;;;;5026797;28;20045;-71
2023/10/30 01:41:13;;;;;;;8.32;2.42;;;10.10;99.90;;;;;;5032389;28;20042;-71
2023/10/30 01:43:38;;;;;;;4.97;2.10;;;10.10;99.90;;;;;;5016167;28;20477;-71
2023/10/30 01:46:05;;;;;;;6.38;2.70;;;10.00;99.90;;;;;;5023001;28;20026;-71
2023/10/30 01:48:33;;;;;;;11.00;2.70;;;10.00;99.90;;;;;;5043697;28;20045;-69
2023/10/30 01:51:00;;;;;;;12.00;2.53;;;10.00;99.90;;;;;;5050650;28;20040;-69
2023/10/30 01:53:29;;;;;;;7.10;2.50;;;10.00;99.90;;;;;;5024020;28;20091;-69
2023/10/30 01:55:56;;;;;;;11.13;2.45;;;10.00;99.90;;;;;;5034335;28;20032;-69
2023/10/30 01:58:23;;;;;;;11.55;2.63;;;10.10;99.90;;;;;;5036081;28;20398;-71
2023/10/30 02:00:50;;;;;;;7.80;2.60;;;10.10;99.90;;;;;;5033569;28;20143;-71
2023/10/30 02:03:16;;;;;;;9.13;2.38;;;10.20;99.90;;;;;;5032308;28;20132;-71
2023/10/30 02:05:41;;;;;;;8.73;2.35;;;10.20;99.90;;;;;;5034371;28;20120;-71
2023/10/30 02:08:08;;;;;;;9.70;2.97;;;10.20;99.90;;;;;;5013340;28;20037;-70
2023/10/30 02:10:34;;;;;;;6.10;2.40;;;10.30;99.90;;;;;;5031414;28;20087;-71
2023/10/30 02:13:03;;;;;;;6.50;2.25;;;10.30;99.90;;;;;;5043954;28;20037;-71
2023/10/30 02:15:28;;;;;;;8.30;2.08;;;10.30;99.90;;;;;;5032350;28;20069;-70
2023/10/30 02:17:54;;;;;;;7.32;2.15;;;10.30;99.90;;;;;;5038255;28;20052;-71
2023/10/30 02:20:19;;;;;;;5.82;1.90;;;10.40;99.90;;;;;;5037801;28;20038;-71
2023/10/30 02:22:45;;;;;;;7.68;2.60;;;10.40;99.90;;;;;;5001372;28;20056;-71
2023/10/30 02:25:10;;;;;;;11.23;2.75;;;10.50;99.90;;;;;;5035532;28;20049;-69
2023/10/30 02:27:36;;;;;;;7.75;2.33;;;10.50;99.90;;;;;;5040879;28;20116;-70
2023/10/30 02:30:02;;;;;;;8.07;2.45;;;10.50;99.90;;;;;;5030974;28;20049;-69
2023/10/30 02:32:27;;;;;;;6.15;2.08;;;10.60;99.90;;;;;;5029026;28;20379;-69
2023/10/30 02:34:53;;;;;;;9.32;2.35;;;10.70;99.90;;;;;;5003000;28;20385;-69
2023/10/30 02:37:18;;;;;;;8.35;2.40;;;10.70;99.90;;;;;;5027976;28;20084;-71
2023/10/30 02:39:44;;;;;;;9.40;2.30;;;10.70;99.90;;;;;;5024028;28;20046;-70
2023/10/30 02:42:10;;;;;;;10.68;2.60;;;10.80;99.90;;;;;;5032037;28;20045;-70
2023/10/30 02:44:35;;;;;;;9.02;2.17;;;10.80;99.90;;;;;;4999633;28;20041;-71
2023/10/30 02:47:01;;;;;;;6.97;2.10;;;10.80;99.90;;;;;;5016916;28;20048;-71
2023/10/30 02:49:27;;;;;;;8.80;2.20;;;10.80;99.90;;;;;;5033375;28;20045;-71
2023/10/30 02:51:52;;;;;;;8.38;2.13;;;10.70;99.90;;;;;;5032494;28;20070;-69
2023/10/30 02:54:18;;;;;;;12.38;2.22;;;10.70;99.90;;;;;;5022282;28;20110;-69
2023/10/30 02:56:44;;;;;;;11.20;2.88;;;10.70;99.90;;;;;;5034289;28;20116;-70
2023/10/30 02:59:10;;;;;;;13.20;2.60;;;10.70;99.90;;;;;;5013519;28;20046;-70
2023/10/30 03:01:35;;;;;;;6.45;2.10;;;10.70;99.90;;;;;;5037456;28;20508;-69
2023/10/30 03:04:01;;;;;;;10.75;2.28;;;10.60;99.90;;;;;;5032236;28;20120;-69
2023/10/30 03:06:27;;;;;;;9.93;2.28;;;10.60;99.90;;;;;;5033466;28;20069;-69
2023/10/30 03:08:52;;;;;;;9.43;2.30;;;10.50;99.90;;;;;;5014044;28;20071;-71
2023/10/30 03:11:18;;;;;;;7.28;2.15;;;10.60;99.90;;;;;;5022339;28;20429;-71
2023/10/30 03:13:44;;;;;;;8.63;2.60;;;10.60;99.90;;;;;;5046602;28;20029;-69
2023/10/30 03:16:10;;;;;;;9.32;2.00;;;10.50;99.90;;;;;;5033394;28;20052;-69
2023/10/30 03:18:35;;;;;;;6.22;2.08;;;10.50;99.90;;;;;;5017535;28;20041;-70
2023/10/30 03:21:01;;;;;;;8.50;2.80;;;10.50;99.90;;;;;;5014387;28;20038;-69
2023/10/30 03:23:26;;;;;;;11.07;3.17;;;10.50;99.90;;;;;;5015120;28;20037;-69
2023/10/30 03:25:52;;;;;;;10.70;2.20;;;10.50;99.90;;;;;;5035783;28;20060;-71
2023/10/30 03:28:18;;;;;;;8.50;2.20;;;10.50;99.90;;;;;;5041740;28;20084;-71
2023/10/30 03:30:44;;;;;;;12.32;2.58;;;10.50;99.90;;;;;;5043881;28;20034;-71
2023/10/30 03:33:09;;;;;;;8.93;2.25;;;10.40;99.90;;;;;;5015854;28;20110;-71
2023/10/30 03:35:39;;;;;;;11.75;2.35;;;10.40;99.90;;;;;;5018936;28;20034;-70
2023/10/30 03:38:05;;;;;;;13.13;2.47;;;10.40;99.90;;;;;;5032674;28;20029;-71
2023/10/30 03:40:31;;;;;;;6.50;1.95;;;10.30;99.90;;;;;;5036176;28;20082;-71
2023/10/30 03:42:56;;;;;;;8.32;2.20;;;10.30;99.90;;;;;;5037753;28;20042;-71
2023/10/30 03:45:22;;;;;;;9.05;2.25;;;10.30;99.90;;;;;;5035432;28;20084;-70
2023/10/30 03:47:47;;;;;;;12.07;2.42;;;10.30;99.90;;;;;;5037348;28;20037;-69
2023/10/30 03:50:13;;;;;;;7.05;2.30;;;10.30;99.90;;;;;;5014156;28;20056;-71
2023/10/30 03:52:40;;;;;;;10.63;2.17;;;10.20;99.90;;;;;;5036765;28;20128;-69
2023/10/30 03:55:06;;;;;;;5.53;2.05;;;10.30;99.90;;;;;;5014864;28;20041;-69
2023/10/30 03:57:32;;;;;;;6.72;2.03;;;10.30;99.90;;;;;;5015837;28;20413;-71
2023/10/30 03:59:57;;;;;;;8.43;2.30;;;10.30;99.90;;;;;;5029729;28;20030;-69
2023/10/30 04:02:23;;;;;;;9.00;2.30;;;10.20;99.90;;;;;;5021457;28;20037;-69
2023/10/30 04:04:49;;;;;;;7.75;1.80;;;10.20;99.90;;;;;;5034520;28;20028;-71
2023/10/30 04:07:14;;;;;;;12.73;2.10;;;10.20;99.90;;;;;;5030045;28;20056;-71
2023/10/30 04:09:40;;;;;;;13.20;2.75;;;10.20;99.90;;;;;;5031578;28;20038;-71
2023/10/30 04:12:06;;;;;;;8.82;2.53;;;10.30;99.90;;;;;;5042355;28;20378;-71
2023/10/30 04:14:31;;;;;;;9.93;2.13;;;10.20;99.90;;;;;;5029879;28;20033;-69
2023/10/30 04:16:58;;;;;;;8.73;3.03;;;10.20;99.90;;;;;;5024449;28;20046;-69
2023/10/30 04:19:24;;;;;;;10.68;2.22;;;10.30;99.90;;;;;;5033884;28;20037;-71
2023/10/30 04:21:49;;;;;;;13.13;2.63;;;10.20;99.90;;;;;;5034437;28;20444;-70
2023/10/30 04:24:15;;;;;;;9.90;2.40;;;10.20;99.90;;;;;;5050017;28;20505;-71
2023/10/30 04:26:40;;;;;;;9.48;2.15;;;10.20;99.90;;;;;;5017930;28;20033;-71
2023/10/30 04:29:06;;;;;;;9.63;2.30;;;10.30;99.90;;;;;;5033594;28;20040;-71
2023/10/30 04:31:31;;;;;;;7.80;2.03;;;10.30;99.90;;;;;;5014586;28;20466;-71
2023/10/30 04:33:57;;;;;;;11.55;2.13;;;10.20;99.90;;;;;;5022816;28;20049;-71
2023/10/30 04:36:23;;;;;;;8.27;2.15;;;10.20;99.90;;;;;;5013075;28;20120;-71
2023/10/30 04:38:50;;;;;;;5.60;1.92;;;10.20;99.90;;;;;;5016354;28;20053;-71
2023/10/30 04:41:15;;;;;;;11.95;2.50;;;10.20;99.90;;;;;;5013368;28;20049;-71
2023/10/30 04:43:41;;;;;;;11.55;2.35;;;10.10;99.90;;;;;;5030939;28;20044;-71
2023/10/30 04:46:07;;;;;;;12.75;2.15;;;10.10;99.90;;;;;;5031409;28;20060;-69
2023/10/30 04:48:33;;;;;;;9.15;2.42;;;10.10;99.90;;;;;;5004304;28;20037;-70
2023/10/30 04:51:00;;;;;;;10.40;2.60;;;10.10;99.90;;;;;;5011251;28;20033;-70
2023/10/30 04:53:27;;;;;;;9.80;2.13;;;10.10;99.90;;;;;;5030976;28;20041;-70
2023/10/30 04:55:53;;;;;;;9.75;1.95;;;10.10;99.90;;;;;;5031396;28;20065;-70
2023/10/30 04:58:19;;;;;;;11.30;2.25;;;10.00;99.90;;;;;;5016065;28;20083;-71
2023/10/30 05:00:45;;;;;;;11.10;2.55;;;10.00;99.90;;;;;;5042262;28;20080;-70
2023/10/30 05:03:10;;;;;;;10.70;2.40;;;10.00;99.90;;;;;;5030994;28;20029;-70
2023/10/30 05:05:36;;;;;;;8.23;2.00;;;10.00;99.90;;;;;;5022472;28;20380;-69
2023/10/30 05:08:02;;;;;;;9.00;2.30;;;10.00;99.90;;;;;;5022437;28;20039;-69
2023/10/30 05:10:28;;;;;;;13.27;2.45;;;9.90;99.90;;;;;;5023389;28;20128;-69
2023/10/30 05:12:54;;;;;;;9.60;2.33;;;9.90;99.90;;;;;;5028306;28;20123;-69
2023/10/30 05:15:21;;;;;;;8.32;2.10;;;9.80;99.90;;;;;;5029271;28;20117;-70
2023/10/30 05:17:47;;;;;;;11.82;2.35;;;9.80;99.90;;;;;;5031808;28;20037;-71
2023/10/30 05:20:12;;;;;;;10.88;2.53;;;9.80;99.90;;;;;;5017557;28;20044;-71
2023/10/30 05:22:39;;;;;;;10.07;2.80;;;9.70;99.90;;;;;;5005385;28;20037;-71
2023/10/30 05:25:05;;;;;;;9.75;2.35;;;9.60;99.90;;;;;;5034170;28;20569;-71
2023/10/30 05:27:31;;;;;;;9.73;2.38;;;9.70;99.90;;;;;;5045518;28;20151;-70
2023/10/30 05:29:57;;;;;;;19.40;2.63;;;9.70;99.90;;;;;;5045557;28;20048;-71
2023/10/30 05:32:23;;;;;;;10.20;2.33;;;9.60;99.90;;;;;;5035865;28;20053;-70
2023/10/30 05:34:49;;;;;;;12.32;2.45;;;9.60;99.90;;;;;;5037719;28;20099;-71
2023/10/30 05:37:16;;;;;;;8.52;2.78;;;9.60;99.90;;;;;;5019966;28;20091;-70
2023/10/30 05:39:42;;;;;;;8.50;2.45;;;9.70;99.90;;;;;;5014883;28;20045;-71
2023/10/30 05:42:08;;;;;;;10.27;2.78;;;9.60;99.90;;;;;;5034344;28;20049;-71
2023/10/30 05:44:33;;;;;;;14.95;3.17;;;9.70;99.90;;;;;;5017403;28;20053;-71
2023/10/30 05:46:59;;;;;;;10.50;2.33;;;9.70;99.90;;;;;;5034728;28;20481;-71
2023/10/30 05:49:25;;;;;;;10.38;2.50;;;9.80;99.90;;;;;;5034648;28;20575;-71
2023/10/30 05:51:52;;;;;;;7.53;2.55;;;9.80;99.90;;;;;;5031207;28;20037;-70
2023/10/30 05:54:18;;;;;;;9.60;2.40;;;9.80;99.90;;;;;;5025423;28;20091;-69
2023/10/30 05:56:43;;;;;;;13.73;2.70;;;9.80;99.90;;;;;;5027916;28;20049;-69
2023/10/30 05:59:09;;;;;;;11.85;2.50;;;9.90;99.90;;;;;;5020333;28;20049;-69
2023/10/30 06:01:35;;;;;;;9.82;2.80;;;10.00;99.90;;;;;;5027301;28;20449;-71
2023/10/30 06:04:00;;;;;;;11.93;2.92;;;10.00;99.90;;;;;;5034283;28;20120;-70
2023/10/30 06:06:26;;;;;;;9.77;2.42;;;10.00;99.90;;;;;;5048398;28;20041;-70
2023/10/30 06:08:51;;;;;;;12.18;2.20;;;10.00;99.90;;;;;;5045564;28;20556;-71
2023/10/30 06:11:17;;;;;;;9.82;2.53;;;10.00;99.90;;;;;;5025482;28;21379;-72
2023/10/30 06:13:42;;;;;;;8.20;2.45;;;10.10;99.90;;;;;;5018332;28;20042;-71
2023/10/30 06:16:20;;;;;;;11.82;2.70;;;10.10;99.90;;;;;;5025497;28;20494;-71
2023/10/30 06:18:46;;;;;;;11.30;2.58;;;10.10;99.90;;;;;;5021890;28;20037;-72
2023/10/30 06:21:15;;;;;;;17.17;4.70;;;10.10;99.90;;;;;;5013664;28;20045;-71
2023/10/30 06:23:41;;;;;;;7.88;2.28;;;10.10;99.90;;;;;;5032978;28;20038;-71
2023/10/30 06:26:11;;;;;;;11.57;2.70;;;10.10;99.90;;;;;;5034798;28;20120;-70
2023/10/30 06:28:37;;;;;;;12.35;3.13;;;10.10;99.90;;;;;;5030075;28;20494;-69
2023/10/30 06:31:16;;;;;;;12.95;2.58;;;10.10;99.90;;;;;;5031401;28;20029;-71
2023/10/30 06:33:42;;;;;;;15.32;3.00;;;10.10;99.90;;;;;;5034208;28;20048;-72
2023/10/30 06:36:08;;;;;;;12.50;3.20;;;10.00;99.90;;;;;;5011399;28;20045;-71
2023/10/30 06:38:34;;;;;;;8.93;2.80;;;10.00;99.90;;;;;;5029690;28;20037;-71
2023/10/30 06:41:00;;;;;;;11.60;2.53;;;10.00;99.90;;;;;;5019567;28;20400;-72
2023/10/30 06:43:26;;;;;;;10.45;2.63;;;10.00;99.90;;;;;;5041824;28;20041;-71
2023/10/30 06:46:01;;;;;;;11.10;2.58;;;10.10;99.90;;;;;;5036587;28;20116;-71
2023/10/30 06:48:27;;;;;;;17.23;2.90;;;10.10;99.90;;;;;;5030685;28;20394;-69
2023/10/30 06:50:53;;;;;;;11.18;3.33;;;10.20;99.90;;;;;;5030272;28;20042;-69
2023/10/30 06:53:19;;;;;;;14.38;2.75;;;10.10;99.90;;;;;;5029631;28;20033;-69
2023/10/30 06:55:44;;;;;;;11.35;2.80;;;10.20;99.90;;;;;;5031432;28;20090;-70
2023/10/30 06:58:10;;;;;;;10.00;2.83;;;10.20;99.90;;;;;;5021219;28;20037;-69
2023/10/30 07:00:36;;;;;;;8.65;2.72;;;10.20;99.90;;;;;;5025554;28;20049;-70
2023/10/30 07:03:02;;;;;;;9.40;2.30;;;10.20;99.90;;;;;;5019899;28;20044;-71
2023/10/30 07:05:27;;;;;;;13.02;3.00;;;10.30;99.90;;;;;;5030757;28;20090;-71
2023/10/30 07:07:53;;;;;;;11.38;2.55;;;10.30;99.90;;;;;;5047346;28;20040;-71
2023/10/30 07:10:19;;;;;;;11.98;2.83;;;10.30;99.90;;;;;;5030846;28;20037;-71
2023/10/30 07:12:44;;;;;;;10.48;2.78;;;10.40;99.90;;;;;;5024448;28;20127;-72
2023/10/30 07:15:10;;;;;;;9.05;2.38;;;10.40;99.90;;;;;;5032443;28;20069;-72
2023/10/30 07:17:35;;;;;;;9.50;2.60;;;10.40;99.90;;;;;;5034074;28;20402;-71
2023/10/30 07:20:02;;;;;;;10.30;2.65;;;10.50;99.90;;;;;;5039848;28;20053;-70
2023/10/30 07:22:28;;;;;;;6.30;2.40;;;10.50;99.90;;;;;;5021756;28;20055;-70
2023/10/30 07:24:54;;;;;;;9.73;2.55;;;10.50;99.90;;;;;;5032087;28;20033;-70
2023/10/30 07:27:20;;;;;;;7.60;2.45;;;10.60;99.90;;;;;;5027504;28;20038;-71
2023/10/30 07:29:46;;;;;;;12.30;2.92;;;10.60;99.90;;;;;;5008789;28;20408;-71
2023/10/30 07:32:11;;;;;;;10.10;3.40;;;10.60;99.90;;;;;;5013163;28;20466;-71
2023/10/30 07:34:37;;;;;;;15.38;3.10;;;10.70;99.90;;;;;;5012483;28;20080;-71
2023/10/30 07:37:02;;;;;;;10.15;2.88;;;10.70;99.90;;;;;;5015492;28;20032;-71
2023/10/30 07:39:28;;;;;;;9.50;2.92;;;10.70;99.90;;;;;;5014178;28;20048;-71
2023/10/30 07:41:53;;;;;;;8.80;2.58;;;10.80;99.90;;;;;;5031626;28;20132;-71
2023/10/30 07:44:19;;;;;;;9.25;2.80;;;10.80;99.90;;;;;;4992967;28;20129;-71
2023/10/30 07:46:44;;;;;;;10.55;2.70;;;10.90;99.90;;;;;;5036140;28;20112;-71
2023/10/30 07:49:10;;;;;;;10.98;2.83;;;10.90;99.90;;;;;;5016818;28;20523;-71
2023/10/30 07:51:35;;;;;;;12.98;3.15;;;10.90;99.90;;;;;;5029549;28;20478;-71
2023/10/30 07:54:01;;;;;;;14.25;3.28;;;11.00;99.90;;;;;;5026082;28;20120;-72
2023/10/30 07:56:26;;;;;;;10.82;3.50;;;11.00;99.90;;;;;;5031702;28;20435;-71
2023/10/30 07:58:52;;;;;;;12.30;2.70;;;11.10;99.90;;;;;;5019873;28;20485;-71
2023/10/30 08:01:20;;;;;;;10.75;3.15;;;11.10;99.90;;;;;;5031381;28;20079;-71
2023/10/30 08:03:46;;;;;;;10.70;2.80;;;11.20;99.90;;;;;;5031829;28;20041;-70
2023/10/30 08:06:12;;;;;;;12.75;2.90;;;11.20;99.90;;;;;;5035098;28;20043;-70
2023/10/30 08:08:38;;;;;;;13.15;3.03;;;11.20;99.90;;;;;;5034870;28;20448;-70
2023/10/30 08:11:04;;;;;;;10.23;3.05;;;11.20;99.90;;;;;;5021502;28;20112;-70
2023/10/30 08:13:31;;;;;;;11.32;3.10;;;11.30;99.90;;;;;;5021964;28;20107;-70
2023/10/30 08:15:56;;;;;;;16.00;3.63;;;11.30;99.90;;;;;;5029716;28;20029;-70
2023/10/30 08:18:22;;;;;;;7.13;2.30;;;11.40;99.90;;;;;;5025899;28;20401;-70
2023/10/30 08:20:47;;;;;;;9.13;2.45;;;11.40;99.90;;;;;;5031827;28;20045;-70
2023/10/30 08:23:13;;;;;;;8.60;2.88;;;11.50;99.90;;;;;;5047182;28;20037;-71
2023/10/30 08:25:39;;;;;;;8.63;2.65;;;11.60;99.90;;;;;;5026998;28;20517;-70
2023/10/30 08:28:04;;;;;;;9.45;2.67;;;11.60;99.90;;;;;;5030406;28;20490;-71
2023/10/30 08:30:30;;;;;;;13.13;2.97;;;11.70;99.90;;;;;;5034276;28;20033;-71
2023/10/30 08:32:56;;;;;;;12.07;2.60;;;11.80;99.90;;;;;;5011902;28;20037;-71
2023/10/30 08:35:22;;;;;;;10.38;2.65;;;11.80;99.90;;;;;;5012212;28;20136;-71
2023/10/30 08:37:48;;;;;;;17.08;2.95;;;11.80;99.90;;;;;;5028612;28;20460;-70
2023/10/30 08:40:13;;;;;;;7.78;2.55;;;11.90;99.90;;;;;;5031348;28;20046;-70
2023/10/30 08:42:39;;;;;;;9.85;2.50;;;12.00;99.90;;;;;;5023305;28;20048;-71
2023/10/30 08:45:07;;;;;;;11.60;2.47;;;12.00;99.90;;;;;;5013267;28;20041;-70
2023/10/30 08:47:32;;;;;;;11.55;2.50;;;12.10;99.90;;;;;;5019973;28;20049;-71
2023/10/30 08:49:58;;;;;;;11.27;2.40;;;12.10;99.90;;;;;;5020888;28;20096;-71
2023/10/30 08:52:23;;;;;;;9.88;2.88;;;12.20;99.90;;;;;;5029949;28;20032;-71
2023/10/30 08:54:49;;;;;;;6.50;2.10;;;12.30;99.90;;;;;;5030854;28;20604;-71
2023/10/30 08:57:19;;;;;;;7.82;2.40;;;12.30;99.90;;;;;;4996899;28;20402;-71
2023/10/30 08:59:44;;;;;;;7.43;2.35;;;12.40;99.90;;;;;;5019620;28;20088;-71
2023/10/30 09:02:10;;;;;;;8.90;2.15;;;12.50;99.90;;;;;;5016428;28;20069;-71
2023/10/30 09:04:36;;;;;;;11.32;2.45;;;12.50;99.90;;;;;;5030366;28;20524;-71
2023/10/30 09:07:02;;;;;;;8.15;2.08;;;12.60;99.90;;;;;;5017093;28;20500;-71
2023/10/30 09:09:28;;;;;;;9.82;2.00;;;12.70;99.90;;;;;;5027719;28;20470;-71
2023/10/30 09:11:53;;;;;;;8.70;2.63;;;12.70;99.90;;;;;;5030919;28;20040;-71
2023/10/30 09:14:19;;;;;;;6.88;1.90;;;12.80;99.90;;;;;;5017801;28;20048;-71
2023/10/30 09:16:45;;;;;;;9.18;2.33;;;12.90;99.90;;;;;;5012009;28;20429;-72
2023/10/30 09:19:10;;;;;;;9.52;2.60;;;12.90;99.90;;;;;;5021490;28;20044;-72
2023/10/30 09:21:36;;;;;;;13.13;2.50;;;12.90;99.90;;;;;;5028360;28;20045;-72
2023/10/30 09:24:02;;;;;;;11.18;2.30;;;12.90;99.90;;;;;;5018163;28;20486;-72
2023/10/30 09:26:28;;;;;;;10.93;2.10;;;12.80;99.90;;;;;;5027666;28;20092;-71
2023/10/30 09:28:54;;;;;;;8.73;2.58;;;12.80;99.90;;;;;;5018653;28;20038;-71
2023/10/30 09:31:20;;;;;;;11.82;2.50;;;12.70;99.90;;;;;;5031601;28;20717;-71
2023/10/30 09:33:47;;;;;;;8.65;2.15;;;12.60;99.90;;;;;;5028626;28;20509;-71
2023/10/30 09:36:13;;;;;;;7.88;3.03;;;12.60;99.90;;;;;;5029196;28;20034;-71
2023/10/30 09:38:38;;;;;;;8.65;2.15;;;12.60;99.90;;;;;;5012500;28;20085;-71
2023/10/30 09:41:05;;;;;;;7.63;2.22;;;12.70;99.90;;;;;;5029212;28;20387;-71
2023/10/30 09:43:33;;;;;;;14.95;2.22;;;12.80;99.90;;;;;;5030612;28;20045;-71
2023/10/30 09:46:00;;;;;;;9.57;2.35;;;12.90;99.90;;;;;;4999932;28;20042;-71
2023/10/30 09:48:28;;;;;;;7.55;2.15;;;12.90;99.90;;;;;;5005155;28;20076;-71
2023/10/30 09:50:56;;;;;;;11.63;2.60;;;12.90;99.90;;;;;;5027225;28;20050;-72
2023/10/30 09:53:24;;;;;;;9.95;2.20;;;12.90;99.90;;;;;;5030547;28;20413;-72
2023/10/30 09:55:51;;;;;;;10.20;2.67;;;12.90;99.90;;;;;;5008469;28;20041;-71
2023/10/30 09:58:17;;;;;;;13.60;2.97;;;12.90;99.90;;;;;;5019698;28;20046;-70
2023/10/30 10:00:46;;;;;;;11.18;2.55;;;13.00;99.90;;;;;;5027990;28;20048;-71
2023/10/30 10:03:12;;;;;;;13.18;2.30;;;13.10;99.90;;;;;;5038784;28;20036;-71
2023/10/30 10:05:37;;;;;;;9.93;2.50;;;13.10;99.90;;;;;;5030316;28;20402;-70
2023/10/30 10:08:04;;;;;;;9.02;2.30;;;13.20;99.90;;;;;;5027896;28;20044;-71
2023/10/30 10:10:59;;;;;;;10.60;2.63;;;13.40;99.90;;;;;;5008155;28;20048;-72
2023/10/30 10:13:26;;;;;;;13.38;2.70;;;13.50;99.90;;;;;;5022154;28;20053;-72
2023/10/30 10:15:52;;;;;;;10.85;2.53;;;13.80;99.90;;;;;;5020334;28;20041;-71
2023/10/30 10:18:34;;;;;;;8.55;2.53;;;14.00;99.90;;;;;;5027939;28;20512;-71
2023/10/30 10:21:04;;;;;;;8.40;2.33;;;14.10;99.90;;;;;;5054267;28;20041;-72
2023/10/30 10:23:33;;;;;;;7.65;2.35;;;14.40;99.90;;;;;;5043268;28;20116;-71
2023/10/30 10:26:00;;;;;;;4.90;2.00;;;14.30;99.90;;;;;;5006545;28;20076;-71
2023/10/30 10:28:26;;;;;;;8.07;2.10;;;14.20;99.90;;;;;;5020519;28;20124;-72
2023/10/30 10:30:55;;;;;;;11.02;2.88;;;14.10;99.90;;;;;;5037657;28;20544;-72
2023/10/30 10:33:27;;;;;;;10.30;2.28;;;14.00;99.90;;;;;;5023016;28;20553;-72
2023/10/30 10:35:57;;;;;;;10.95;2.17;;;14.00;99.90;;;;;;5015908;28;20490;-72
2023/10/30 10:38:23;;;;;;;5.53;2.20;;;14.10;99.90;;;;;;5016044;28;20037;-72
2023/10/30 10:40:52;;;;;;;9.00;2.67;;;14.20;99.90;;;;;;5034896;28;20036;-72
2023/10/30 10:43:20;;;;;;;14.02;2.75;;;14.50;99.90;;;;;;5023056;28;20041;-72
2023/10/30 10:45:50;;;;;;;13.63;2.85;;;14.50;99.90;;;;;;5034441;28;20030;-72
2023/10/30 10:48:18;;;;;;;4.95;2.28;;;14.50;99.90;;;;;;5020892;28;20493;-72
2023/10/30 10:50:44;;;;;;;6.55;2.10;;;14.40;99.90;;;;;;5019020;28;20149;-72
2023/10/30 10:53:11;;;;;;;7.88;2.20;;;14.20;99.90;;;;;;5029540;28;20025;-72
2023/10/30 10:55:50;;;;;;;8.60;2.20;;;14.10;99.90;;;;;;5023855;28;20022;-72
2023/10/30 10:58:19;;;;;;;7.80;2.22;;;14.00;99.90;;;;;;5017695;28;20559;-71
2023/10/30 11:00:50;;;;;;;9.38;2.53;;;14.00;99.90;;;;;;5028373;28;20485;-71
2023/10/30 11:03:16;;;;;;;13.10;2.42;;;14.10;99.90;;;;;;5031626;28;20449;-72
2023/10/30 11:05:43;;;;;;;11.30;2.85;;;14.10;99.90;;;;;;5018478;28;20044;-71
2023/10/30 11:08:34;;;;;;;8.32;2.15;;;14.10;99.90;;;;;;5040481;28;20080;-71
2023/10/30 11:11:33;;;;;;;9.75;2.55;;;14.10;99.90;;;;;;5036313;28;20128;-71
2023/10/30 11:14:25;;;;;;;8.88;2.22;;;14.10;99.90;;;;;;5020667;28;20121;-71
2023/10/30 11:17:00;;;;;;;9.95;2.60;;;14.10;99.90;;;;;;5018347;28;20110;-72
2023/10/30 11:19:28;;;;;;;8.07;2.60;;;14.10;99.90;;;;;;5032667;28;20060;-72
2023/10/30 11:21:54;;;;;;;11.73;2.67;;;14.10;99.90;;;;;;5014621;28;20369;-71
2023/10/30 11:24:39;;;;;;;11.13;2.53;;;14.20;99.90;;;;;;5007836;28;20056;-72
2023/10/30 11:27:34;;;;;;;11.70;2.40;;;14.30;99.90;;;;;;5011679;28;20041;-72
2023/10/30 11:30:08;;;;;;;9.98;2.50;;;14.30;99.90;;;;;;5031262;28;20048;-71
2023/10/30 11:32:51;;;;;;;9.65;2.50;;;14.40;99.90;;;;;;5013985;28;20078;-73
2023/10/30 11:35:20;;;;;;;7.47;2.63;;;14.40;99.90;;;;;;5033125;28;20033;-72
2023/10/30 11:37:46;;;;;;;10.95;3.60;;;14.50;99.90;;;;;;5038449;28;20090;-72
2023/10/30 11:40:15;;;;;;;7.03;2.10;;;14.40;99.90;;;;;;5037307;28;20497;-72
2023/10/30 11:42:43;;;;;;;12.05;2.50;;;14.40;99.90;;;;;;5017050;28;20053;-72
2023/10/30 11:45:22;;;;;;;11.20;2.60;;;14.40;99.90;;;;;;5003984;28;20185;-71
2023/10/30 11:48:05;;;;;;;7.90;2.17;;;14.70;99.90;;;;;;5018940;28;20075;-71
2023/10/30 11:50:36;;;;;;;8.40;2.20;;;14.70;99.90;;;;;;5016033;28;20061;-71
2023/10/30 11:53:10;;;;;;;15.02;2.75;;;14.80;99.90;;;;;;5017784;28;20116;-71
2023/10/30 11:55:40;;;;;;;11.40;2.60;;;14.80;99.90;;;;;;5036542;28;20025;-71
2023/10/30 11:58:07;;;;;;;8.43;2.00;;;14.80;99.90;;;;;;5014670;28;20047;-71
2023/10/30 12:00:33;;;;;;;7.25;2.35;;;14.80;99.90;;;;;;5032233;28;20045;-71
2023/10/30 12:02:59;;;;;;;9.27;2.47;;;14.90;99.90;;;;;;5019738;28;20127;-71
2023/10/30 12:05:28;;;;;;;10.27;2.20;;;15.00;99.90;;;;;;5012419;28;20048;-71
2023/10/30 12:07:54;;;;;;;12.27;2.70;;;15.10;99.90;;;;;;5038392;28;20036;-71
2023/10/30 12:10:20;;;;;;;19.55;2.60;;;15.10;99.90;;;;;;5026796;28;20083;-71
2023/10/30 12:12:46;;;;;;;8.45;2.05;;;15.20;99.90;;;;;;5025027;28;20068;-71
2023/10/30 12:15:12;;;;;;;9.98;2.25;;;15.10;99.90;;;;;;5005782;28;21013;-71
2023/10/30 12:17:39;;;;;;;11.38;2.33;;;15.10;99.90;;;;;;5010208;28;20041;-71
2023/10/30 12:20:06;;;;;;;10.45;2.47;;;15.00;99.90;;;;;;5024412;28;20056;-71
2023/10/30 12:22:35;;;;;;;11.70;2.50;;;15.00;99.90;;;;;;5032583;28;20095;-71
2023/10/30 12:25:00;;;;;;;7.63;2.15;;;15.00;99.90;;;;;;5037817;28;20059;-71
2023/10/30 12:27:26;;;;;;;8.35;2.38;;;14.90;99.90;;;;;;5039711;28;20497;-71
2023/10/30 12:29:55;;;;;;;13.68;2.60;;;14.90;99.90;;;;;;5032733;28;20049;-71
2023/10/30 12:32:21;;;;;;;10.98;2.67;;;14.90;99.90;;;;;;5021918;28;20041;-71
2023/10/30 12:34:47;;;;;;;10.35;2.42;;;14.90;99.90;;;;;;5013557;28;20053;-71
2023/10/30 12:37:25;;;;;;;8.52;2.55;;;15.00;99.90;;;;;;5032815;28;20099;-71
2023/10/30 12:40:03;;;;;;;13.63;2.45;;;15.00;99.90;;;;;;5031502;28;20037;-71
2023/10/30 12:42:31;;;;;;;14.27;2.50;;;15.00;99.90;;;;;;5025887;28;20041;-71